createdAt,value
2018-07-21T00:02:14.008Z,26.10
2018-07-21T00:04:42.502Z,26.10
2018-07-21T00:07:11.050Z,26.10
2018-07-21T00:09:39.658Z,26.00
2018-07-21T00:12:08.281Z,26.00
2018-07-21T00:14:36.929Z,26.00
2018-07-21T00:17:05.466Z,26.00
2018-07-21T00:19:34.200Z,25.90
2018-07-21T00:22:02.770Z,25.90
2018-07-21T00:24:31.269Z,25.90
2018-07-21T00:26:59.807Z,25.90
2018-07-21T00:29:28.389Z,25.80
2018-07-21T00:31:56.901Z,25.80
2018-07-21T00:34:25.387Z,25.80
2018-07-21T00:36:53.897Z,25.70
2018-07-21T00:39:22.412Z,25.70
2018-07-21T00:41:50.974Z,25.70
2018-07-21T00:44:19.497Z,25.70
2018-07-21T00:46:48.031Z,25.70
2018-07-21T00:49:16.546Z,25.70
2018-07-21T00:51:45.080Z,25.70
2018-07-21T00:54:13.594Z,25.60
2018-07-21T00:56:42.100Z,25.60
2018-07-21T00:59:10.598Z,25.50
2018-07-21T01:01:39.199Z,25.50
2018-07-21T01:04:07.716Z,25.50
2018-07-21T01:06:36.242Z,25.50
2018-07-21T01:09:07.397Z,25.50
2018-07-21T01:14:04.166Z,25.40
2018-07-21T01:16:32.690Z,25.40
2018-07-21T01:19:01.183Z,25.40
2018-07-21T01:23:57.934Z,25.30
2018-07-21T01:26:26.448Z,25.30
2018-07-21T01:28:54.931Z,25.30
2018-07-21T01:31:23.441Z,25.30
2018-07-21T01:33:52.021Z,25.20
2018-07-21T01:36:20.545Z,25.20
2018-07-21T01:38:49.116Z,25.20
2018-07-21T01:41:17.692Z,25.10
2018-07-21T01:43:46.206Z,25.10
2018-07-21T01:46:14.721Z,25.10
2018-07-21T01:48:43.201Z,25.10
2018-07-21T01:51:11.741Z,25.10
2018-07-21T01:53:40.223Z,25.00
2018-07-21T01:56:08.718Z,25.00
2018-07-21T01:58:37.236Z,25.00
2018-07-21T02:01:06.252Z,25.00
2018-07-21T02:03:34.847Z,25.00
2018-07-21T02:06:03.361Z,24.90
2018-07-21T02:08:32.156Z,24.90
2018-07-21T02:11:00.670Z,24.90
2018-07-21T02:13:29.188Z,24.80
2018-07-21T02:15:57.670Z,24.80
2018-07-21T02:18:26.182Z,24.80
2018-07-21T02:20:54.683Z,24.80
2018-07-21T02:23:23.205Z,24.70
2018-07-21T02:25:51.691Z,24.70
2018-07-21T02:28:20.208Z,24.70
2018-07-21T02:30:48.692Z,24.70
2018-07-21T02:33:17.212Z,24.70
2018-07-21T02:35:45.722Z,24.70
2018-07-21T02:38:14.258Z,24.60
2018-07-21T02:40:42.753Z,24.60
2018-07-21T02:43:11.271Z,24.60
2018-07-21T02:45:39.861Z,24.50
2018-07-21T02:48:08.379Z,24.50
2018-07-21T02:50:36.876Z,24.50
2018-07-21T02:53:05.419Z,24.50
2018-07-21T02:55:33.943Z,24.50
2018-07-21T02:58:02.471Z,24.50
2018-07-21T03:00:31.005Z,24.40
2018-07-21T03:02:59.511Z,24.40
2018-07-21T03:05:28.037Z,24.40
2018-07-21T03:07:56.558Z,24.40
2018-07-21T03:10:25.113Z,24.40
2018-07-21T03:12:53.684Z,24.40
2018-07-21T03:15:22.210Z,24.40
2018-07-21T03:17:50.802Z,24.30
2018-07-21T03:20:19.358Z,24.30
2018-07-21T03:22:48.134Z,24.30
2018-07-21T03:25:16.634Z,24.30
2018-07-21T03:27:45.182Z,24.30
2018-07-21T03:30:13.698Z,24.30
2018-07-21T03:32:42.246Z,24.30
2018-07-21T03:35:10.770Z,24.20
2018-07-21T03:37:39.288Z,24.20
2018-07-21T03:40:07.818Z,24.20
2018-07-21T03:42:36.350Z,24.20
2018-07-21T03:45:04.933Z,24.20
2018-07-21T03:47:33.492Z,24.20
2018-07-21T03:50:02.011Z,24.10
2018-07-21T03:52:30.530Z,24.10
2018-07-21T03:54:59.090Z,24.10
2018-07-21T03:57:27.573Z,24.10
2018-07-21T03:59:56.109Z,24.10
2018-07-21T04:02:24.654Z,24.10
2018-07-21T04:04:53.226Z,24.00
2018-07-21T04:07:21.741Z,24.00
2018-07-21T04:09:50.770Z,24.00
2018-07-21T04:12:19.861Z,24.00
2018-07-21T04:14:48.395Z,24.00
2018-07-21T04:17:22.385Z,23.90
2018-07-21T04:19:51.006Z,23.90
2018-07-21T04:22:19.657Z,23.90
2018-07-21T04:24:48.219Z,23.90
2018-07-21T04:27:16.805Z,23.90
2018-07-21T04:29:45.350Z,23.80
2018-07-21T04:32:14.321Z,23.80
2018-07-21T04:34:42.961Z,23.80
2018-07-21T04:37:11.478Z,23.80
2018-07-21T04:39:40.001Z,23.80
2018-07-21T04:42:08.650Z,23.80
2018-07-21T04:44:37.446Z,23.80
2018-07-21T04:47:06.036Z,23.70
2018-07-21T04:49:34.583Z,23.70
2018-07-21T04:52:03.091Z,23.70
2018-07-21T04:54:31.674Z,23.70
2018-07-21T04:57:00.282Z,23.70
2018-07-21T04:59:28.802Z,23.60
2018-07-21T05:01:57.320Z,23.60
2018-07-21T05:04:25.905Z,23.60
2018-07-21T05:06:54.415Z,23.60
2018-07-21T05:09:23.075Z,23.60
2018-07-21T05:11:51.673Z,23.60
2018-07-21T05:14:20.302Z,23.60
2018-07-21T05:16:48.834Z,23.60
2018-07-21T05:19:17.365Z,23.60
2018-07-21T05:21:46.010Z,23.60
2018-07-21T05:24:14.553Z,23.50
2018-07-21T05:26:43.063Z,23.50
2018-07-21T05:29:11.595Z,23.50
2018-07-21T05:31:40.194Z,23.50
2018-07-21T05:34:08.741Z,23.50
2018-07-21T05:36:37.263Z,23.50
2018-07-21T05:39:07.384Z,23.40
2018-07-21T05:41:36.034Z,23.40
2018-07-21T05:44:04.606Z,23.40
2018-07-21T05:46:33.127Z,23.40
2018-07-21T05:49:01.690Z,23.30
2018-07-21T05:51:30.216Z,23.40
2018-07-21T05:53:58.768Z,23.30
2018-07-21T05:56:27.276Z,23.30
2018-07-21T05:58:55.784Z,23.30
2018-07-21T06:01:24.345Z,23.30
2018-07-21T06:03:53.068Z,23.20
2018-07-21T06:06:21.674Z,23.20
2018-07-21T06:08:50.198Z,23.20
2018-07-21T06:11:18.761Z,23.20
2018-07-21T06:13:47.268Z,23.20
2018-07-21T06:16:15.986Z,23.20
2018-07-21T06:18:44.552Z,23.20
2018-07-21T06:21:13.049Z,23.20
2018-07-21T06:23:41.595Z,23.10
2018-07-21T06:26:10.693Z,23.10
2018-07-21T06:28:39.212Z,23.10
2018-07-21T06:31:07.822Z,23.10
2018-07-21T06:33:36.347Z,23.00
2018-07-21T06:36:04.933Z,23.00
2018-07-21T06:38:33.447Z,23.00
2018-07-21T06:41:01.981Z,23.00
2018-07-21T06:43:30.503Z,23.00
2018-07-21T06:45:59.031Z,23.00
2018-07-21T06:48:27.539Z,23.00
2018-07-21T06:50:56.094Z,23.00
2018-07-21T06:53:24.618Z,22.90
2018-07-21T06:55:53.173Z,22.90
2018-07-21T06:58:21.691Z,22.90
2018-07-21T07:00:50.237Z,22.90
2018-07-21T07:05:47.112Z,22.80
2018-07-21T07:08:24.270Z,22.80
2018-07-21T07:10:52.925Z,22.80
2018-07-21T07:13:21.448Z,22.80
2018-07-21T07:18:18.298Z,22.80
2018-07-21T07:20:46.851Z,22.80
2018-07-21T07:23:15.391Z,22.70
2018-07-21T07:25:43.962Z,22.70
2018-07-21T07:28:12.472Z,22.70
2018-07-21T07:30:41.029Z,22.70
2018-07-21T07:33:09.553Z,22.70
2018-07-21T07:35:38.155Z,22.60
2018-07-21T07:38:06.752Z,22.60
2018-07-21T07:40:35.371Z,22.60
2018-07-21T07:43:03.909Z,22.60
2018-07-21T07:45:32.589Z,22.60
2018-07-21T07:48:01.110Z,22.60
2018-07-21T07:50:29.655Z,22.60
2018-07-21T07:52:58.553Z,22.60
2018-07-21T07:55:31.333Z,22.50
2018-07-21T07:58:00.613Z,22.50
2018-07-21T08:00:29.603Z,22.50
2018-07-21T08:02:58.816Z,22.50
2018-07-21T08:05:27.644Z,22.50
2018-07-21T08:07:56.175Z,22.50
2018-07-21T08:10:24.733Z,22.50
2018-07-21T08:15:22.553Z,22.40
2018-07-21T08:17:51.673Z,22.40
2018-07-21T08:20:20.209Z,22.40
2018-07-21T08:22:48.771Z,22.40
2018-07-21T08:25:17.326Z,22.40
2018-07-21T08:27:45.898Z,22.30
2018-07-21T08:30:14.563Z,22.30
2018-07-21T08:32:43.115Z,22.30
2018-07-21T08:35:11.753Z,22.30
2018-07-21T08:37:40.730Z,22.30
2018-07-21T08:40:09.641Z,22.30
2018-07-21T08:42:38.310Z,22.30
2018-07-21T08:45:08.157Z,22.30
2018-07-21T08:47:36.726Z,22.30
2018-07-21T08:50:06.001Z,22.20
2018-07-21T08:52:34.545Z,22.20
2018-07-21T08:55:03.084Z,22.20
2018-07-21T08:57:31.680Z,22.20
2018-07-21T09:00:00.206Z,22.20
2018-07-21T09:02:28.842Z,22.20
2018-07-21T09:04:57.374Z,22.20
2018-07-21T09:07:25.913Z,22.10
2018-07-21T09:09:54.497Z,22.10
2018-07-21T09:12:23.019Z,22.10
2018-07-21T09:14:51.559Z,22.10
2018-07-21T09:17:21.089Z,22.10
2018-07-21T09:19:50.872Z,22.10
2018-07-21T09:22:19.681Z,22.10
2018-07-21T09:24:48.749Z,22.10
2018-07-21T09:27:17.268Z,22.10
2018-07-21T09:29:45.926Z,22.00
2018-07-21T09:32:14.517Z,22.00
2018-07-21T09:34:43.698Z,22.00
2018-07-21T09:37:12.219Z,22.00
2018-07-21T09:39:40.745Z,22.00
2018-07-21T09:42:09.318Z,22.00
2018-07-21T09:44:37.818Z,22.00
2018-07-21T09:47:06.591Z,22.00
2018-07-21T09:49:35.754Z,21.90
2018-07-21T09:52:04.403Z,21.90
2018-07-21T09:54:32.990Z,21.90
2018-07-21T09:57:01.519Z,21.90
2018-07-21T09:59:30.025Z,21.90
2018-07-21T10:01:58.567Z,21.90
2018-07-21T10:04:27.539Z,21.90
2018-07-21T10:06:56.388Z,21.90
2018-07-21T10:09:25.226Z,21.90
2018-07-21T10:11:54.057Z,21.90
2018-07-21T10:14:23.138Z,21.80
2018-07-21T10:16:51.654Z,21.80
2018-07-21T10:19:20.143Z,21.80
2018-07-21T10:21:48.890Z,21.80
2018-07-21T10:24:22.687Z,21.80
2018-07-21T10:26:56.363Z,21.80
2018-07-21T10:29:25.183Z,21.80
2018-07-21T10:31:53.827Z,21.80
2018-07-21T10:34:22.436Z,21.80
2018-07-21T10:36:50.921Z,21.80
2018-07-21T10:39:19.458Z,21.80
2018-07-21T10:41:47.986Z,21.80
2018-07-21T10:44:16.528Z,21.70
2018-07-21T10:46:45.152Z,21.70
2018-07-21T10:49:13.680Z,21.70
2018-07-21T10:51:42.202Z,21.70
2018-07-21T10:54:10.733Z,21.70
2018-07-21T10:56:39.297Z,21.70
2018-07-21T10:59:07.869Z,21.70
2018-07-21T11:01:36.366Z,21.70
2018-07-21T11:04:04.970Z,21.70
2018-07-21T11:06:33.514Z,21.70
2018-07-21T11:09:02.027Z,21.70
2018-07-21T11:11:30.589Z,21.70
2018-07-21T11:13:59.149Z,21.70
2018-07-21T11:16:27.669Z,21.70
2018-07-21T11:18:56.206Z,21.70
2018-07-21T11:21:24.716Z,21.70
2018-07-21T11:23:53.226Z,21.70
2018-07-21T11:26:21.717Z,21.70
2018-07-21T11:28:50.245Z,21.70
2018-07-21T11:31:18.749Z,21.70
2018-07-21T11:33:47.307Z,21.70
2018-07-21T11:36:16.060Z,21.70
2018-07-21T11:38:44.378Z,21.70
2018-07-21T11:41:12.933Z,21.60
2018-07-21T11:43:41.471Z,21.70
2018-07-21T11:46:09.963Z,21.70
2018-07-21T11:48:38.528Z,21.70
2018-07-21T11:51:07.026Z,21.70
2018-07-21T11:53:35.557Z,21.70
2018-07-21T11:56:04.196Z,21.70
2018-07-21T11:58:32.737Z,21.70
2018-07-21T12:01:01.252Z,21.70
2018-07-21T12:03:29.774Z,21.70
2018-07-21T12:05:58.263Z,21.70
2018-07-21T12:08:26.795Z,21.70
2018-07-21T12:10:55.309Z,21.70
2018-07-21T12:13:23.838Z,21.70
2018-07-21T12:15:52.393Z,21.70
2018-07-21T12:18:20.917Z,21.70
2018-07-21T12:20:49.418Z,21.70
2018-07-21T12:23:18.012Z,21.70
2018-07-21T12:25:46.501Z,21.70
2018-07-21T12:28:14.985Z,21.70
2018-07-21T12:30:43.532Z,21.70
2018-07-21T12:33:12.107Z,21.70
2018-07-21T12:35:40.740Z,21.70
2018-07-21T12:38:09.245Z,21.70
2018-07-21T12:40:37.757Z,21.70
2018-07-21T12:43:06.491Z,21.70
2018-07-21T12:45:35.028Z,21.70
2018-07-21T12:48:03.720Z,21.70
2018-07-21T12:50:32.246Z,21.70
2018-07-21T12:53:00.803Z,21.70
2018-07-21T12:55:29.486Z,21.70
2018-07-21T12:57:58.013Z,21.70
2018-07-21T13:00:26.531Z,21.70
2018-07-21T13:02:55.037Z,21.60
2018-07-21T13:05:23.573Z,21.70
2018-07-21T13:07:52.115Z,21.70
2018-07-21T13:10:20.685Z,21.70
2018-07-21T13:12:49.191Z,21.70
2018-07-21T13:15:17.875Z,21.70
2018-07-21T13:17:46.395Z,21.70
2018-07-21T13:20:14.954Z,21.70
2018-07-21T13:22:43.465Z,21.70
2018-07-21T13:25:12.031Z,21.70
2018-07-21T13:27:40.530Z,21.70
2018-07-21T13:30:10.094Z,21.70
2018-07-21T13:32:38.631Z,21.70
2018-07-21T13:35:08.295Z,21.70
2018-07-21T13:37:36.829Z,21.70
2018-07-21T13:40:06.323Z,21.70
2018-07-21T13:42:34.842Z,21.70
2018-07-21T13:45:03.453Z,21.70
2018-07-21T13:47:32.106Z,21.70
2018-07-21T13:50:00.649Z,21.70
2018-07-21T13:52:29.158Z,21.70
2018-07-21T13:54:58.051Z,21.70
2018-07-21T13:57:31.981Z,21.70
2018-07-21T14:00:00.547Z,21.70
2018-07-21T14:02:29.054Z,21.70
2018-07-21T14:04:57.673Z,21.70
2018-07-21T14:07:26.945Z,21.80
2018-07-21T14:09:55.750Z,21.70
2018-07-21T14:14:52.903Z,21.70
2018-07-21T14:17:21.640Z,21.80
2018-07-21T14:19:50.177Z,21.70
2018-07-21T14:22:18.690Z,21.70
2018-07-21T14:24:47.185Z,21.80
2018-07-21T14:27:15.710Z,21.80
2018-07-21T14:29:44.280Z,21.70
2018-07-21T14:32:13.238Z,21.70
2018-07-21T14:34:41.808Z,21.80
2018-07-21T14:37:10.380Z,21.80
2018-07-21T14:39:39.173Z,21.80
2018-07-21T14:42:07.783Z,21.80
2018-07-21T14:44:36.439Z,21.80
2018-07-21T14:47:05.524Z,21.80
2018-07-21T14:49:34.047Z,21.80
2018-07-21T14:54:30.936Z,21.80
2018-07-21T14:56:59.591Z,21.80
2018-07-21T14:59:28.876Z,21.80
2018-07-21T15:01:57.493Z,21.80
2018-07-21T15:04:26.096Z,21.80
2018-07-21T15:06:54.702Z,21.80
2018-07-21T15:09:23.497Z,21.80
2018-07-21T15:11:52.396Z,21.80
2018-07-21T15:14:21.165Z,21.80
2018-07-21T15:16:49.756Z,21.80
2018-07-21T15:19:18.270Z,21.80
2018-07-21T15:21:46.821Z,21.80
2018-07-21T15:24:15.397Z,21.80
2018-07-21T15:26:43.982Z,21.80
2018-07-21T15:29:12.501Z,21.80
2018-07-21T15:31:41.047Z,21.80
2018-07-21T15:34:09.616Z,21.80
2018-07-21T15:36:38.194Z,21.80
2018-07-21T15:39:08.568Z,21.80
2018-07-21T15:41:37.210Z,21.80
2018-07-21T15:44:06.005Z,21.80
2018-07-21T15:46:34.573Z,21.80
2018-07-21T15:49:03.180Z,21.80
2018-07-21T15:51:32.575Z,21.80
2018-07-21T15:54:01.105Z,21.80
2018-07-21T15:56:29.681Z,21.80
2018-07-21T15:58:58.178Z,21.80
2018-07-21T16:01:27.052Z,21.80
2018-07-21T16:03:55.622Z,21.80
2018-07-21T16:06:24.266Z,21.80
2018-07-21T16:08:52.773Z,21.80
2018-07-21T16:11:21.346Z,21.90
2018-07-21T16:13:49.896Z,21.80
2018-07-21T16:16:18.420Z,21.90
2018-07-21T16:18:47.020Z,21.90
2018-07-21T16:21:15.537Z,21.80
2018-07-21T16:23:44.319Z,21.80
2018-07-21T16:26:12.871Z,21.80
2018-07-21T16:28:41.414Z,21.90
2018-07-21T16:31:09.990Z,21.90
2018-07-21T16:33:38.549Z,21.90
2018-07-21T16:36:07.053Z,21.90
2018-07-21T16:38:35.593Z,21.90
2018-07-21T16:41:04.127Z,21.90
2018-07-21T16:43:33.220Z,21.90
2018-07-21T16:46:01.807Z,21.90
2018-07-21T16:50:58.689Z,21.90
2018-07-21T16:53:27.257Z,21.90
2018-07-21T16:55:55.763Z,21.90
2018-07-21T16:58:25.250Z,21.90
2018-07-21T17:00:54.279Z,21.90
2018-07-21T17:03:22.897Z,21.90
2018-07-21T17:05:51.407Z,21.90
2018-07-21T17:08:20.405Z,21.90
2018-07-21T17:10:49.018Z,21.90
2018-07-21T17:13:17.692Z,21.90
2018-07-21T17:15:50.697Z,21.90
2018-07-21T17:20:48.613Z,21.90
2018-07-21T17:23:17.196Z,21.90
2018-07-21T17:25:46.269Z,21.80
2018-07-21T17:28:14.791Z,21.90
2018-07-21T17:30:43.332Z,21.90
2018-07-21T17:33:11.861Z,21.80
2018-07-21T17:35:40.355Z,21.90
2018-07-21T17:38:08.918Z,21.90
2018-07-21T17:40:37.433Z,21.80
2018-07-21T17:43:05.971Z,21.80
2018-07-21T17:45:34.562Z,21.80
2018-07-21T17:48:03.107Z,21.80
2018-07-21T17:50:31.705Z,21.80
2018-07-21T17:53:00.171Z,21.80
2018-07-21T17:55:28.683Z,21.80
2018-07-21T17:57:57.262Z,21.80
2018-07-21T18:00:25.811Z,21.80
2018-07-21T18:02:54.417Z,21.70
2018-07-21T18:05:23.017Z,21.80
2018-07-21T18:07:51.513Z,21.70
2018-07-21T18:10:20.086Z,21.70
2018-07-21T18:12:48.739Z,21.70
2018-07-21T18:15:17.439Z,21.70
2018-07-21T18:17:45.978Z,21.70
2018-07-21T18:20:14.552Z,21.70
2018-07-21T18:22:43.094Z,21.70
2018-07-21T18:25:11.674Z,21.70
2018-07-21T18:27:40.187Z,21.70
2018-07-21T18:30:08.725Z,21.70
2018-07-21T18:32:37.245Z,21.70
2018-07-21T18:35:05.921Z,21.60
2018-07-21T18:37:34.417Z,21.60
2018-07-21T18:40:03.109Z,21.70
2018-07-21T18:42:31.638Z,21.60
2018-07-21T18:45:00.201Z,21.60
2018-07-21T18:52:25.832Z,21.60
2018-07-21T18:54:54.394Z,21.60
2018-07-21T18:57:22.994Z,21.60
2018-07-21T18:59:51.644Z,21.60
2018-07-21T19:02:20.130Z,21.60
2018-07-21T19:04:48.710Z,21.60
2018-07-21T19:07:17.367Z,21.60
2018-07-21T19:09:46.764Z,21.50
2018-07-21T19:12:20.865Z,21.60
2018-07-21T19:14:50.045Z,21.50
2018-07-21T19:17:18.639Z,21.50
2018-07-21T19:19:52.467Z,21.50
2018-07-21T19:22:21.010Z,21.50
2018-07-21T19:24:49.858Z,21.50
2018-07-21T19:27:23.704Z,21.50
2018-07-21T19:29:52.441Z,21.40
2018-07-21T19:33:25.301Z,21.50
2018-07-21T19:38:23.293Z,21.40
2018-07-21T19:40:52.462Z,21.40
2018-07-21T19:43:21.653Z,21.40
2018-07-21T19:45:50.341Z,21.40
2018-07-21T19:48:19.502Z,21.40
2018-07-21T19:53:16.606Z,21.30
2018-07-21T19:55:45.466Z,21.30
2018-07-21T20:00:42.565Z,21.30
2018-07-21T20:03:11.463Z,21.30
2018-07-21T20:05:40.498Z,21.30
2018-07-21T20:08:08.993Z,21.30
2018-07-21T20:10:37.701Z,21.30
2018-07-21T20:13:06.531Z,21.20
2018-07-21T20:15:35.345Z,21.30
2018-07-21T20:18:04.008Z,21.20
2018-07-21T20:20:32.859Z,21.20
2018-07-21T20:23:01.750Z,21.20
2018-07-21T20:25:30.515Z,21.20
2018-07-21T20:27:59.118Z,21.20
2018-07-21T20:30:27.665Z,21.20
2018-07-21T20:32:56.328Z,21.20
2018-07-21T20:35:25.349Z,21.20
2018-07-21T20:37:54.218Z,21.10
2018-07-21T20:40:22.881Z,21.10
2018-07-21T20:42:51.577Z,21.10
2018-07-21T20:45:20.074Z,21.10
2018-07-21T20:47:48.573Z,21.10
2018-07-21T20:50:17.117Z,21.10
2018-07-21T20:52:45.715Z,21.10
2018-07-21T20:55:14.210Z,21.10
2018-07-21T20:57:42.721Z,21.00
2018-07-21T21:00:11.368Z,21.10
2018-07-21T21:02:39.885Z,21.10
2018-07-21T21:05:08.372Z,21.10
2018-07-21T21:07:37.006Z,21.10
2018-07-21T21:10:06.010Z,21.00
2018-07-21T21:12:34.573Z,21.00
2018-07-21T21:15:03.835Z,21.00
2018-07-21T21:17:32.363Z,21.00
2018-07-21T21:20:00.878Z,21.00
2018-07-21T21:22:29.401Z,21.00
2018-07-21T21:24:57.917Z,20.90
2018-07-21T21:27:26.441Z,21.00
2018-07-21T21:29:54.950Z,20.90
2018-07-21T21:32:23.457Z,20.90
2018-07-21T21:34:52.030Z,20.90
2018-07-21T21:37:20.729Z,20.90
2018-07-21T21:39:49.229Z,20.90
2018-07-21T21:42:17.859Z,20.90
2018-07-21T21:44:46.682Z,20.90
2018-07-21T21:47:15.197Z,20.90
2018-07-21T21:49:43.700Z,20.90
2018-07-21T21:52:12.243Z,20.90
2018-07-21T21:54:40.729Z,20.90
2018-07-21T21:57:09.378Z,20.90
2018-07-21T21:59:37.882Z,20.80
2018-07-21T22:02:06.573Z,20.80
2018-07-21T22:04:35.131Z,20.80
2018-07-21T22:07:03.653Z,20.80
2018-07-21T22:09:32.233Z,20.80
2018-07-21T22:12:00.873Z,20.80
2018-07-21T22:16:57.611Z,20.80
2018-07-21T22:19:26.156Z,20.70
2018-07-21T22:21:54.702Z,20.70
2018-07-21T22:24:23.218Z,20.70
2018-07-21T22:26:51.765Z,20.70
2018-07-21T22:29:20.387Z,20.70
2018-07-21T22:31:48.918Z,20.60
2018-07-21T22:34:17.456Z,20.70
2018-07-21T22:36:45.961Z,20.70
2018-07-21T22:39:14.501Z,20.60
2018-07-21T22:41:43.028Z,20.60
2018-07-21T22:44:11.598Z,20.60
2018-07-21T22:46:40.128Z,20.60
2018-07-21T22:49:08.721Z,20.60
2018-07-21T22:51:37.250Z,20.60
2018-07-21T22:54:05.966Z,20.60
2018-07-21T22:56:34.503Z,20.60
2018-07-21T22:59:03.062Z,20.60
2018-07-21T23:01:31.595Z,20.50
2018-07-21T23:04:00.146Z,20.50
2018-07-21T23:06:28.678Z,20.50
2018-07-21T23:08:57.331Z,20.50
2018-07-21T23:11:25.843Z,20.50
2018-07-21T23:13:54.372Z,20.50
2018-07-21T23:16:22.878Z,20.50
2018-07-21T23:18:51.461Z,20.40
2018-07-21T23:21:19.960Z,20.40
2018-07-21T23:23:48.474Z,20.40
2018-07-21T23:26:17.005Z,20.40
2018-07-21T23:28:45.540Z,20.40
2018-07-21T23:31:14.059Z,20.40
2018-07-21T23:33:42.578Z,20.30
2018-07-21T23:36:11.237Z,20.30
2018-07-21T23:38:39.759Z,20.30
2018-07-21T23:41:08.301Z,20.30
2018-07-21T23:43:36.823Z,20.30
2018-07-21T23:46:05.409Z,20.30
2018-07-21T23:48:33.943Z,20.30
2018-07-21T23:51:02.431Z,20.20
2018-07-21T23:53:30.969Z,20.20
2018-07-21T23:55:59.454Z,20.20
2018-07-21T23:58:27.980Z,20.20
